Ana Sayfa
METAR-TAF:

METAR-TAF

Havaalanları :

Kuching Uluslararası Havalimanı

Kuching, Malezya

Enlem: 01-29N, Boylam: 110-20E, yükseklik: 27 m

Güncel hava durumu gözlemi

Rapor saat 07:30 UTC de 15 dakika önce yapıldı.
Rüzgar kuzey/kuzeydoğudan 6 kt, kuzey/kuzeybatı ve doğu arasında değişken
Sıcaklık 30°C
Nem 75%
Basınç 1007 hPa
Görüş mesafesi 10 km veya daha fazla
2000 ft yükseklikte parçalı çok bulutlu

METAR: WBGG 290730Z 02006KT 330V080 9999 BKN020 30/25 Q1007 NOSIG

Saat: 15:45 (07:45 UTC)

Tahmin

Rapor saat 05:00 UTC de 2 saat ve 45 dakika önce yapıldı.
Ayın 29'si saat 06 UTC'den ayın 01'si saat 06 UTC'ye kadar geçerli Tahmin
Rüzgar değişken yönden 3 kt
Görüş mesafesi 10 km veya daha fazla
2000 ft yükseklikte az bulutlu
Geçici
ayın 29'si saat 08 UTC'den ayın 29'si saat 12 UTC'ye kadar
Rüzgar kuzey/kuzeybatıdan 6 kt
Görüş mesafesi: 5000 m
1600 ft yükseklikte parçalı bulutlu
yağmur

TAF: WBGG 290500Z 2906/0106 VRB03KT 9999 FEW020 TEMPO 2908/2912 34006KT 5000 RA SCT016

4.000'den fazla havaalanı için hava durumu gözlemleri ve tahminleri (METAR ve TAF raporları).

Kullanılabilir istasyonlar harita üzerinde sarı ve kırmızı noktalarla gösterilir.

İstasyonun adını görmek için fareyi noktanın üzerinde gezdirin.

Sonrasında hava gözlem ve tahminlerini görmek için tıklayın.

Haritayı değiştirmek için: yaklaştırmak için siyah artı işaretli yeşil düğmeye ve uzaklaştırmak için de eksi işaretli düğmeye hızla tıklayın; bitişik haritalar için yeşil okları kullanın.


METAR-TAF: